Terminal Aerodrome Forecast
Issued by NWS

Current Version | Previous Version | Text Only | Print | Product List | Glossary On
Versions: 1 2 3 4 5 6 7 8 9 10 11 12 13 14 15 16 17 18 19 20 21 22 23 24 25 26 27 28 29 30 31 32 33 34 35 36 37 38 39 40 41 42 43 44 45 46 47 48 49 50
000
FTUS46 KEKA 290858 AAA
TAFACV
TAF AMD
KACV 290858Z 2909/3006 19009G17KT 1 1/2SM +RA FEW007 SCT015 OVC035
     FM291100 20009G17KT 4SM RA FEW007 SCT015 OVC035
     FM291700 22010KT 6SM BR FEW002 SCT007 OVC009=

USA.gov is the U.S. government's official web portal to all federal, state and local government web resources and services.